Mooresville, Missouri
Current Conditions -  °F | °C
As of 12:15 PM on Thursday 18 Dec 2014 (Local Time) from KGPH Reporting Station
Haze Haze  
Wind Chill: 27°   Ceiling: 1000
Heat Index: 32°   Visibility: 5mi
Dew Point: 30°   Wind: 5mph
Humidity: 93%   Direction: 100°E
Pressure: 30.23"   Gusts: NA
Location:  39.75°N, 93.72°W
Report Text: KGPH 181815Z AUTO 10004KT 5SM BR OVC010 00/M01 A3023 RMK AO2
Loading
Personal Weather Stations






























Interactive Weather Map New forecast layout! Learn more

10-Day Weather Forecast

Advertisements
Track Severe Weather on mobile